sensor_id;sensor_type;location;lat;lon;timestamp;temperature;humidity
22202;DHT22;11266;51.522;6.302;2023-07-08T00:00:21;21.50;93.50
22202;DHT22;11266;51.522;6.302;2023-07-08T00:01:12;21.50;93.50
22202;DHT22;11266;51.522;6.302;2023-07-08T00:01:58;21.50;93.50
22202;DHT22;11266;51.522;6.302;2023-07-08T00:02:44;21.50;93.50
22202;DHT22;11266;51.522;6.302;2023-07-08T00:03:30;21.50;93.60
22202;DHT22;11266;51.522;6.302;2023-07-08T00:04:15;21.60;93.50
22202;DHT22;11266;51.522;6.302;2023-07-08T00:05:01;21.50;93.70
22202;DHT22;11266;51.522;6.302;2023-07-08T00:05:48;21.50;93.60
22202;DHT22;11266;51.522;6.302;2023-07-08T00:06:35;21.50;93.30
22202;DHT22;11266;51.522;6.302;2023-07-08T00:07:21;21.50;93.50
22202;DHT22;11266;51.522;6.302;2023-07-08T00:08:15;21.50;93.50
22202;DHT22;11266;51.522;6.302;2023-07-08T00:09:01;21.50;93.50
22202;DHT22;11266;51.522;6.302;2023-07-08T00:09:46;21.50;93.40
22202;DHT22;11266;51.522;6.302;2023-07-08T00:10:32;21.50;93.50
22202;DHT22;11266;51.522;6.302;2023-07-08T00:11:17;21.50;93.60
22202;DHT22;11266;51.522;6.302;2023-07-08T00:12:10;21.50;93.50
22202;DHT22;11266;51.522;6.302;2023-07-08T00:12:57;21.50;93.60
22202;DHT22;11266;51.522;6.302;2023-07-08T00:13:44;21.50;93.50
22202;DHT22;11266;51.522;6.302;2023-07-08T00:14:29;21.50;93.40
22202;DHT22;11266;51.522;6.302;2023-07-08T00:15:15;21.50;93.40
22202;DHT22;11266;51.522;6.302;2023-07-08T00:16:01;21.50;93.50
22202;DHT22;11266;51.522;6.302;2023-07-08T00:16:47;21.50;93.60
22202;DHT22;11266;51.522;6.302;2023-07-08T00:17:32;21.50;93.40
22202;DHT22;11266;51.522;6.302;2023-07-08T00:18:18;21.50;93.50
22202;DHT22;11266;51.522;6.302;2023-07-08T00:19:08;21.50;93.60
22202;DHT22;11266;51.522;6.302;2023-07-08T00:19:54;21.50;93.70
22202;DHT22;11266;51.522;6.302;2023-07-08T00:20:49;21.40;93.70
22202;DHT22;11266;51.522;6.302;2023-07-08T00:21:35;21.50;93.60
22202;DHT22;11266;51.522;6.302;2023-07-08T00:22:21;21.50;93.80
22202;DHT22;11266;51.522;6.302;2023-07-08T00:23:10;21.50;93.90
22202;DHT22;11266;51.522;6.302;2023-07-08T00:23:55;21.40;93.80
22202;DHT22;11266;51.522;6.302;2023-07-08T00:24:42;21.50;93.80
22202;DHT22;11266;51.522;6.302;2023-07-08T00:25:29;21.40;93.70
22202;DHT22;11266;51.522;6.302;2023-07-08T00:26:23;21.40;93.70
22202;DHT22;11266;51.522;6.302;2023-07-08T00:27:11;21.40;93.90
22202;DHT22;11266;51.522;6.302;2023-07-08T00:28:00;21.40;93.60
22202;DHT22;11266;51.522;6.302;2023-07-08T00:28:45;21.40;93.60
22202;DHT22;11266;51.522;6.302;2023-07-08T00:29:31;21.40;93.70
22202;DHT22;11266;51.522;6.302;2023-07-08T00:31:10;21.40;93.70
22202;DHT22;11266;51.522;6.302;2023-07-08T00:31:56;21.40;93.90
22202;DHT22;11266;51.522;6.302;2023-07-08T00:32:41;21.40;93.60
22202;DHT22;11266;51.522;6.302;2023-07-08T00:33:27;21.30;93.70
22202;DHT22;11266;51.522;6.302;2023-07-08T00:34:12;21.40;93.70
22202;DHT22;11266;51.522;6.302;2023-07-08T00:34:58;21.40;93.80
22202;DHT22;11266;51.522;6.302;2023-07-08T00:35:44;21.40;93.70
22202;DHT22;11266;51.522;6.302;2023-07-08T00:36:31;21.40;93.70
22202;DHT22;11266;51.522;6.302;2023-07-08T00:37:17;21.40;93.60
22202;DHT22;11266;51.522;6.302;2023-07-08T00:38:24;21.30;93.60
22202;DHT22;11266;51.522;6.302;2023-07-08T00:39:14;21.30;93.60
22202;DHT22;11266;51.522;6.302;2023-07-08T00:40:17;21.30;93.80
22202;DHT22;11266;51.522;6.302;2023-07-08T00:41:14;21.30;93.80
22202;DHT22;11266;51.522;6.302;2023-07-08T00:42:01;21.30;93.80
22202;DHT22;11266;51.522;6.302;2023-07-08T00:42:50;21.30;93.70
22202;DHT22;11266;51.522;6.302;2023-07-08T00:43:44;21.30;93.60
22202;DHT22;11266;51.522;6.302;2023-07-08T00:44:32;21.30;93.80
22202;DHT22;11266;51.522;6.302;2023-07-08T00:45:32;21.30;93.70
22202;DHT22;11266;51.522;6.302;2023-07-08T00:47:15;21.30;93.90
22202;DHT22;11266;51.522;6.302;2023-07-08T00:50:23;21.30;93.80
22202;DHT22;11266;51.522;6.302;2023-07-08T00:51:09;21.30;94.00
22202;DHT22;11266;51.522;6.302;2023-07-08T00:52:23;21.30;93.80
22202;DHT22;11266;51.522;6.302;2023-07-08T00:53:36;21.30;93.90
22202;DHT22;11266;51.522;6.302;2023-07-08T00:54:21;21.30;93.80
22202;DHT22;11266;51.522;6.302;2023-07-08T00:55:09;21.20;93.80
22202;DHT22;11266;51.522;6.302;2023-07-08T00:56:55;21.20;93.90
22202;DHT22;11266;51.522;6.302;2023-07-08T00:57:45;21.20;93.90
22202;DHT22;11266;51.522;6.302;2023-07-08T00:58:46;21.30;93.80
22202;DHT22;11266;51.522;6.302;2023-07-08T00:59:38;21.30;93.90
22202;DHT22;11266;51.522;6.302;2023-07-08T01:00:25;21.20;93.70
22202;DHT22;11266;51.522;6.302;2023-07-08T01:01:12;21.20;94.00
22202;DHT22;11266;51.522;6.302;2023-07-08T01:01:59;21.20;94.00
22202;DHT22;11266;51.522;6.302;2023-07-08T01:02:52;21.20;94.10
22202;DHT22;11266;51.522;6.302;2023-07-08T01:03:45;21.20;93.80
22202;DHT22;11266;51.522;6.302;2023-07-08T01:04:58;21.20;93.80
22202;DHT22;11266;51.522;6.302;2023-07-08T01:05:46;21.20;93.80
22202;DHT22;11266;51.522;6.302;2023-07-08T01:06:34;21.20;93.90
22202;DHT22;11266;51.522;6.302;2023-07-08T01:07:25;21.20;94.00
22202;DHT22;11266;51.522;6.302;2023-07-08T01:08:11;21.20;93.80
22202;DHT22;11266;51.522;6.302;2023-07-08T01:09:04;21.20;93.90
22202;DHT22;11266;51.522;6.302;2023-07-08T01:09:57;21.20;94.10
22202;DHT22;11266;51.522;6.302;2023-07-08T01:10:53;21.20;93.90
22202;DHT22;11266;51.522;6.302;2023-07-08T01:11:41;21.20;94.00
22202;DHT22;11266;51.522;6.302;2023-07-08T01:12:43;21.20;93.80
22202;DHT22;11266;51.522;6.302;2023-07-08T01:13:36;21.20;93.70
22202;DHT22;11266;51.522;6.302;2023-07-08T01:14:23;21.20;93.90
22202;DHT22;11266;51.522;6.302;2023-07-08T01:15:10;21.20;93.90
22202;DHT22;11266;51.522;6.302;2023-07-08T01:15:56;21.20;94.20
22202;DHT22;11266;51.522;6.302;2023-07-08T01:16:42;21.20;93.90
22202;DHT22;11266;51.522;6.302;2023-07-08T01:17:28;21.20;93.90
22202;DHT22;11266;51.522;6.302;2023-07-08T01:18:20;21.20;93.90
22202;DHT22;11266;51.522;6.302;2023-07-08T01:19:12;21.20;93.90
22202;DHT22;11266;51.522;6.302;2023-07-08T01:20:00;21.20;94.00
22202;DHT22;11266;51.522;6.302;2023-07-08T01:20:50;21.20;93.90
22202;DHT22;11266;51.522;6.302;2023-07-08T01:22:22;21.20;93.80
22202;DHT22;11266;51.522;6.302;2023-07-08T01:23:10;21.20;94.00
22202;DHT22;11266;51.522;6.302;2023-07-08T01:23:56;21.20;94.20
22202;DHT22;11266;51.522;6.302;2023-07-08T01:24:43;21.20;94.00
22202;DHT22;11266;51.522;6.302;2023-07-08T01:25:30;21.20;94.10
22202;DHT22;11266;51.522;6.302;2023-07-08T01:26:17;21.20;94.10
22202;DHT22;11266;51.522;6.302;2023-07-08T01:27:05;21.20;94.10
22202;DHT22;11266;51.522;6.302;2023-07-08T01:27:54;21.20;94.10
22202;DHT22;11266;51.522;6.302;2023-07-08T01:28:40;21.20;94.20
22202;DHT22;11266;51.522;6.302;2023-07-08T01:29:25;21.20;94.00
22202;DHT22;11266;51.522;6.302;2023-07-08T01:30:11;21.20;94.10
22202;DHT22;11266;51.522;6.302;2023-07-08T01:30:58;21.20;94.00
22202;DHT22;11266;51.522;6.302;2023-07-08T01:31:44;21.20;94.10
22202;DHT22;11266;51.522;6.302;2023-07-08T01:32:37;21.20;94.00
22202;DHT22;11266;51.522;6.302;2023-07-08T01:33:23;21.20;94.10
22202;DHT22;11266;51.522;6.302;2023-07-08T01:34:10;21.10;93.90
22202;DHT22;11266;51.522;6.302;2023-07-08T01:34:59;21.10;94.10
22202;DHT22;11266;51.522;6.302;2023-07-08T01:35:46;21.10;94.10
22202;DHT22;11266;51.522;6.302;2023-07-08T01:36:39;21.10;94.00
22202;DHT22;11266;51.522;6.302;2023-07-08T01:37:36;21.10;94.10
22202;DHT22;11266;51.522;6.302;2023-07-08T01:38:25;21.10;94.20
22202;DHT22;11266;51.522;6.302;2023-07-08T01:39:14;21.10;94.10
22202;DHT22;11266;51.522;6.302;2023-07-08T01:41:04;21.10;94.30
22202;DHT22;11266;51.522;6.302;2023-07-08T01:41:50;21.10;94.20
22202;DHT22;11266;51.522;6.302;2023-07-08T01:42:36;21.00;94.30
22202;DHT22;11266;51.522;6.302;2023-07-08T01:43:22;21.00;94.40
22202;DHT22;11266;51.522;6.302;2023-07-08T01:44:29;21.00;94.30
22202;DHT22;11266;51.522;6.302;2023-07-08T01:45:18;21.00;94.20
22202;DHT22;11266;51.522;6.302;2023-07-08T01:46:11;21.00;94.30
22202;DHT22;11266;51.522;6.302;2023-07-08T01:47:14;21.00;94.20
22202;DHT22;11266;51.522;6.302;2023-07-08T01:48:06;21.00;94.30
22202;DHT22;11266;51.522;6.302;2023-07-08T01:48:56;21.00;94.70
22202;DHT22;11266;51.522;6.302;2023-07-08T01:49:45;21.00;94.30
22202;DHT22;11266;51.522;6.302;2023-07-08T01:50:37;21.00;94.60
22202;DHT22;11266;51.522;6.302;2023-07-08T01:51:24;20.90;94.50
22202;DHT22;11266;51.522;6.302;2023-07-08T01:52:10;21.00;94.60
22202;DHT22;11266;51.522;6.302;2023-07-08T01:52:59;20.90;94.40
22202;DHT22;11266;51.522;6.302;2023-07-08T01:53:45;20.90;94.40
22202;DHT22;11266;51.522;6.302;2023-07-08T01:54:30;21.00;94.50
22202;DHT22;11266;51.522;6.302;2023-07-08T01:55:24;20.90;94.50
22202;DHT22;11266;51.522;6.302;2023-07-08T01:56:12;20.90;94.60
22202;DHT22;11266;51.522;6.302;2023-07-08T01:56:58;20.90;94.90
22202;DHT22;11266;51.522;6.302;2023-07-08T01:57:43;20.90;94.50
22202;DHT22;11266;51.522;6.302;2023-07-08T01:58:29;20.90;94.70
22202;DHT22;11266;51.522;6.302;2023-07-08T01:59:14;20.90;94.90
22202;DHT22;11266;51.522;6.302;2023-07-08T02:00:00;20.80;94.90
22202;DHT22;11266;51.522;6.302;2023-07-08T02:00:45;20.90;94.80
22202;DHT22;11266;51.522;6.302;2023-07-08T02:01:33;20.80;94.60
22202;DHT22;11266;51.522;6.302;2023-07-08T02:02:19;20.80;94.50
22202;DHT22;11266;51.522;6.302;2023-07-08T02:03:04;20.80;94.50
22202;DHT22;11266;51.522;6.302;2023-07-08T02:03:50;20.80;94.70
22202;DHT22;11266;51.522;6.302;2023-07-08T02:04:36;20.80;95.60
22202;DHT22;11266;51.522;6.302;2023-07-08T02:05:22;20.80;94.70
22202;DHT22;11266;51.522;6.302;2023-07-08T02:06:08;20.80;94.90
22202;DHT22;11266;51.522;6.302;2023-07-08T02:06:55;20.80;95.10
22202;DHT22;11266;51.522;6.302;2023-07-08T02:07:41;20.70;95.30
22202;DHT22;11266;51.522;6.302;2023-07-08T02:08:26;20.70;94.90
22202;DHT22;11266;51.522;6.302;2023-07-08T02:09:12;20.70;94.80
22202;DHT22;11266;51.522;6.302;2023-07-08T02:09:58;20.70;95.30
22202;DHT22;11266;51.522;6.302;2023-07-08T02:10:44;20.70;94.80
22202;DHT22;11266;51.522;6.302;2023-07-08T02:11:30;20.70;95.30
22202;DHT22;11266;51.522;6.302;2023-07-08T02:12:15;20.70;95.10
22202;DHT22;11266;51.522;6.302;2023-07-08T02:13:01;20.70;95.40
22202;DHT22;11266;51.522;6.302;2023-07-08T02:13:46;20.60;95.10
22202;DHT22;11266;51.522;6.302;2023-07-08T02:14:32;20.60;95.40
22202;DHT22;11266;51.522;6.302;2023-07-08T02:15:17;20.60;95.70
22202;DHT22;11266;51.522;6.302;2023-07-08T02:16:03;20.60;95.30
22202;DHT22;11266;51.522;6.302;2023-07-08T02:16:51;20.60;95.40
22202;DHT22;11266;51.522;6.302;2023-07-08T02:17:37;20.60;95.30
22202;DHT22;11266;51.522;6.302;2023-07-08T02:18:22;20.60;95.10
22202;DHT22;11266;51.522;6.302;2023-07-08T02:19:10;20.60;95.10
22202;DHT22;11266;51.522;6.302;2023-07-08T02:19:57;20.70;95.80
22202;DHT22;11266;51.522;6.302;2023-07-08T02:20:43;20.60;95.50
22202;DHT22;11266;51.522;6.302;2023-07-08T02:21:28;20.60;95.40
22202;DHT22;11266;51.522;6.302;2023-07-08T02:22:16;20.60;95.50
22202;DHT22;11266;51.522;6.302;2023-07-08T02:23:02;20.60;95.30
22202;DHT22;11266;51.522;6.302;2023-07-08T02:23:50;20.60;95.90
22202;DHT22;11266;51.522;6.302;2023-07-08T02:24:37;20.50;95.30
22202;DHT22;11266;51.522;6.302;2023-07-08T02:25:22;20.50;95.30
22202;DHT22;11266;51.522;6.302;2023-07-08T02:26:08;20.50;95.70
22202;DHT22;11266;51.522;6.302;2023-07-08T02:26:53;20.50;95.60
22202;DHT22;11266;51.522;6.302;2023-07-08T02:27:39;20.50;95.20
22202;DHT22;11266;51.522;6.302;2023-07-08T02:28:25;20.50;95.00
22202;DHT22;11266;51.522;6.302;2023-07-08T02:29:10;20.50;95.50
22202;DHT22;11266;51.522;6.302;2023-07-08T02:29:56;20.50;95.30
22202;DHT22;11266;51.522;6.302;2023-07-08T02:30:41;20.50;95.50
22202;DHT22;11266;51.522;6.302;2023-07-08T02:31:27;20.50;95.80
22202;DHT22;11266;51.522;6.302;2023-07-08T02:32:13;20.40;95.00
22202;DHT22;11266;51.522;6.302;2023-07-08T02:32:58;20.40;95.10
22202;DHT22;11266;51.522;6.302;2023-07-08T02:33:44;20.40;95.10
22202;DHT22;11266;51.522;6.302;2023-07-08T02:34:29;20.40;95.60
22202;DHT22;11266;51.522;6.302;2023-07-08T02:35:15;20.40;95.20
22202;DHT22;11266;51.522;6.302;2023-07-08T02:36:01;20.40;95.10
22202;DHT22;11266;51.522;6.302;2023-07-08T02:36:46;20.40;95.20
22202;DHT22;11266;51.522;6.302;2023-07-08T02:37:38;20.40;95.70
22202;DHT22;11266;51.522;6.302;2023-07-08T02:38:23;20.40;95.30
22202;DHT22;11266;51.522;6.302;2023-07-08T02:39:10;20.40;95.60
22202;DHT22;11266;51.522;6.302;2023-07-08T02:39:56;20.30;95.30
22202;DHT22;11266;51.522;6.302;2023-07-08T02:40:42;20.40;95.60
22202;DHT22;11266;51.522;6.302;2023-07-08T02:41:28;20.40;95.30
22202;DHT22;11266;51.522;6.302;2023-07-08T02:42:14;20.30;95.20
22202;DHT22;11266;51.522;6.302;2023-07-08T02:42:59;20.30;95.20
22202;DHT22;11266;51.522;6.302;2023-07-08T02:43:45;20.30;95.20
22202;DHT22;11266;51.522;6.302;2023-07-08T02:44:30;20.30;95.30
22202;DHT22;11266;51.522;6.302;2023-07-08T02:45:17;20.30;95.60
22202;DHT22;11266;51.522;6.302;2023-07-08T02:46:02;20.30;95.50
22202;DHT22;11266;51.522;6.302;2023-07-08T02:46:48;20.30;95.90
22202;DHT22;11266;51.522;6.302;2023-07-08T02:47:33;20.30;95.50
22202;DHT22;11266;51.522;6.302;2023-07-08T02:48:20;20.30;95.50
22202;DHT22;11266;51.522;6.302;2023-07-08T02:49:05;20.30;95.30
22202;DHT22;11266;51.522;6.302;2023-07-08T02:49:51;20.30;95.70
22202;DHT22;11266;51.522;6.302;2023-07-08T02:50:37;20.30;95.50
22202;DHT22;11266;51.522;6.302;2023-07-08T02:51:23;20.30;95.70
22202;DHT22;11266;51.522;6.302;2023-07-08T02:52:08;20.30;95.60
22202;DHT22;11266;51.522;6.302;2023-07-08T02:52:54;20.30;95.90
22202;DHT22;11266;51.522;6.302;2023-07-08T02:53:39;20.30;95.70
22202;DHT22;11266;51.522;6.302;2023-07-08T02:54:25;20.30;95.50
22202;DHT22;11266;51.522;6.302;2023-07-08T02:55:10;20.20;95.50
22202;DHT22;11266;51.522;6.302;2023-07-08T02:55:56;20.20;95.60
22202;DHT22;11266;51.522;6.302;2023-07-08T02:56:42;20.20;95.50
22202;DHT22;11266;51.522;6.302;2023-07-08T02:57:28;20.20;96.10
22202;DHT22;11266;51.522;6.302;2023-07-08T02:58:13;20.20;95.90
22202;DHT22;11266;51.522;6.302;2023-07-08T02:58:59;20.20;95.60
22202;DHT22;11266;51.522;6.302;2023-07-08T02:59:45;20.20;95.50
22202;DHT22;11266;51.522;6.302;2023-07-08T03:00:30;20.20;96.00
22202;DHT22;11266;51.522;6.302;2023-07-08T03:01:16;20.20;95.60
22202;DHT22;11266;51.522;6.302;2023-07-08T03:02:03;20.20;95.40
22202;DHT22;11266;51.522;6.302;2023-07-08T03:02:49;20.20;95.50
22202;DHT22;11266;51.522;6.302;2023-07-08T03:03:35;20.20;95.70
22202;DHT22;11266;51.522;6.302;2023-07-08T03:04:20;20.20;95.60
22202;DHT22;11266;51.522;6.302;2023-07-08T03:05:07;20.10;95.90
22202;DHT22;11266;51.522;6.302;2023-07-08T03:05:57;20.10;95.70
22202;DHT22;11266;51.522;6.302;2023-07-08T03:06:44;20.10;95.80
22202;DHT22;11266;51.522;6.302;2023-07-08T03:07:30;20.10;95.90
22202;DHT22;11266;51.522;6.302;2023-07-08T03:08:16;20.10;95.90
22202;DHT22;11266;51.522;6.302;2023-07-08T03:09:01;20.10;96.40
22202;DHT22;11266;51.522;6.302;2023-07-08T03:09:47;20.10;95.90
22202;DHT22;11266;51.522;6.302;2023-07-08T03:10:32;20.10;96.00
22202;DHT22;11266;51.522;6.302;2023-07-08T03:11:18;20.10;96.00
22202;DHT22;11266;51.522;6.302;2023-07-08T03:12:05;20.00;95.90
22202;DHT22;11266;51.522;6.302;2023-07-08T03:12:50;20.00;95.80
22202;DHT22;11266;51.522;6.302;2023-07-08T03:13:36;20.10;96.20
22202;DHT22;11266;51.522;6.302;2023-07-08T03:14:23;20.00;95.90
22202;DHT22;11266;51.522;6.302;2023-07-08T03:15:08;20.00;96.20
22202;DHT22;11266;51.522;6.302;2023-07-08T03:15:55;20.00;96.30
22202;DHT22;11266;51.522;6.302;2023-07-08T03:16:40;20.00;96.20
22202;DHT22;11266;51.522;6.302;2023-07-08T03:17:26;20.00;96.30
22202;DHT22;11266;51.522;6.302;2023-07-08T03:18:12;19.90;97.10
22202;DHT22;11266;51.522;6.302;2023-07-08T03:18:57;19.90;97.00
22202;DHT22;11266;51.522;6.302;2023-07-08T03:19:43;19.90;97.20
22202;DHT22;11266;51.522;6.302;2023-07-08T03:20:28;19.80;97.20
22202;DHT22;11266;51.522;6.302;2023-07-08T03:21:18;19.80;96.30
22202;DHT22;11266;51.522;6.302;2023-07-08T03:22:04;19.80;96.90
22202;DHT22;11266;51.522;6.302;2023-07-08T03:22:50;19.80;96.50
22202;DHT22;11266;51.522;6.302;2023-07-08T03:23:36;19.80;96.70
22202;DHT22;11266;51.522;6.302;2023-07-08T03:24:22;19.80;96.60
22202;DHT22;11266;51.522;6.302;2023-07-08T03:25:07;19.80;96.30
22202;DHT22;11266;51.522;6.302;2023-07-08T03:25:53;19.80;96.40
22202;DHT22;11266;51.522;6.302;2023-07-08T03:26:39;19.80;96.40
22202;DHT22;11266;51.522;6.302;2023-07-08T03:27:24;19.80;96.40
22202;DHT22;11266;51.522;6.302;2023-07-08T03:28:10;19.80;96.90
22202;DHT22;11266;51.522;6.302;2023-07-08T03:29:00;19.80;97.20
22202;DHT22;11266;51.522;6.302;2023-07-08T03:29:45;19.70;97.30
22202;DHT22;11266;51.522;6.302;2023-07-08T03:30:31;19.80;96.90
22202;DHT22;11266;51.522;6.302;2023-07-08T03:31:17;19.70;97.10
22202;DHT22;11266;51.522;6.302;2023-07-08T03:32:03;19.70;96.70
22202;DHT22;11266;51.522;6.302;2023-07-08T03:32:49;19.70;97.20
22202;DHT22;11266;51.522;6.302;2023-07-08T03:33:35;19.70;96.90
22202;DHT22;11266;51.522;6.302;2023-07-08T03:34:21;19.70;96.90
22202;DHT22;11266;51.522;6.302;2023-07-08T03:35:07;19.70;97.00
22202;DHT22;11266;51.522;6.302;2023-07-08T03:35:54;19.70;96.80
22202;DHT22;11266;51.522;6.302;2023-07-08T03:36:50;19.70;96.70
22202;DHT22;11266;51.522;6.302;2023-07-08T03:37:37;19.70;96.80
22202;DHT22;11266;51.522;6.302;2023-07-08T03:38:22;19.70;97.20
22202;DHT22;11266;51.522;6.302;2023-07-08T03:39:09;19.70;96.70
22202;DHT22;11266;51.522;6.302;2023-07-08T03:39:54;19.60;96.70
22202;DHT22;11266;51.522;6.302;2023-07-08T03:40:40;19.60;96.90
22202;DHT22;11266;51.522;6.302;2023-07-08T03:41:25;19.60;96.80
22202;DHT22;11266;51.522;6.302;2023-07-08T03:42:11;19.70;97.30
22202;DHT22;11266;51.522;6.302;2023-07-08T03:42:57;19.60;97.00
22202;DHT22;11266;51.522;6.302;2023-07-08T03:43:42;19.60;97.30
22202;DHT22;11266;51.522;6.302;2023-07-08T03:44:28;19.60;97.00
22202;DHT22;11266;51.522;6.302;2023-07-08T03:45:14;19.60;98.00
22202;DHT22;11266;51.522;6.302;2023-07-08T03:45:59;19.50;97.80
22202;DHT22;11266;51.522;6.302;2023-07-08T03:46:46;19.50;97.30
22202;DHT22;11266;51.522;6.302;2023-07-08T03:47:32;19.50;97.40
22202;DHT22;11266;51.522;6.302;2023-07-08T03:48:17;19.50;97.40
22202;DHT22;11266;51.522;6.302;2023-07-08T03:49:03;19.50;97.50
22202;DHT22;11266;51.522;6.302;2023-07-08T03:49:48;19.50;97.20
22202;DHT22;11266;51.522;6.302;2023-07-08T03:50:34;19.50;97.10
22202;DHT22;11266;51.522;6.302;2023-07-08T03:51:30;19.50;97.20
22202;DHT22;11266;51.522;6.302;2023-07-08T03:52:17;19.50;97.70
22202;DHT22;11266;51.522;6.302;2023-07-08T03:53:02;19.50;97.40
22202;DHT22;11266;51.522;6.302;2023-07-08T03:53:48;19.50;97.30
22202;DHT22;11266;51.522;6.302;2023-07-08T03:54:34;19.50;97.30
22202;DHT22;11266;51.522;6.302;2023-07-08T03:55:19;19.50;97.40
22202;DHT22;11266;51.522;6.302;2023-07-08T03:56:05;19.50;97.30
22202;DHT22;11266;51.522;6.302;2023-07-08T03:56:51;19.50;97.60
22202;DHT22;11266;51.522;6.302;2023-07-08T03:57:36;19.50;97.40
22202;DHT22;11266;51.522;6.302;2023-07-08T03:58:22;19.50;97.50
22202;DHT22;11266;51.522;6.302;2023-07-08T03:59:08;19.50;97.80
22202;DHT22;11266;51.522;6.302;2023-07-08T03:59:53;19.50;97.50
22202;DHT22;11266;51.522;6.302;2023-07-08T04:00:39;19.50;97.70
22202;DHT22;11266;51.522;6.302;2023-07-08T04:01:25;19.50;97.40
22202;DHT22;11266;51.522;6.302;2023-07-08T04:02:11;19.50;97.40
22202;DHT22;11266;51.522;6.302;2023-07-08T04:02:56;19.50;97.30
22202;DHT22;11266;51.522;6.302;2023-07-08T04:03:43;19.50;97.40
22202;DHT22;11266;51.522;6.302;2023-07-08T04:04:29;19.50;97.80
22202;DHT22;11266;51.522;6.302;2023-07-08T04:05:15;19.50;97.70
22202;DHT22;11266;51.522;6.302;2023-07-08T04:06:01;19.50;98.20
22202;DHT22;11266;51.522;6.302;2023-07-08T04:06:46;19.50;97.90
22202;DHT22;11266;51.522;6.302;2023-07-08T04:07:33;19.50;98.20
22202;DHT22;11266;51.522;6.302;2023-07-08T04:08:19;19.50;97.90
22202;DHT22;11266;51.522;6.302;2023-07-08T04:09:04;19.50;97.60
22202;DHT22;11266;51.522;6.302;2023-07-08T04:09:50;19.50;98.30
22202;DHT22;11266;51.522;6.302;2023-07-08T04:10:35;19.40;98.50
22202;DHT22;11266;51.522;6.302;2023-07-08T04:11:22;19.40;98.40
22202;DHT22;11266;51.522;6.302;2023-07-08T04:12:08;19.40;98.70
22202;DHT22;11266;51.522;6.302;2023-07-08T04:12:55;19.40;98.90
22202;DHT22;11266;51.522;6.302;2023-07-08T04:13:41;19.40;98.10
22202;DHT22;11266;51.522;6.302;2023-07-08T04:14:26;19.40;98.70
22202;DHT22;11266;51.522;6.302;2023-07-08T04:15:12;19.40;98.40
22202;DHT22;11266;51.522;6.302;2023-07-08T04:16:02;19.40;98.90
22202;DHT22;11266;51.522;6.302;2023-07-08T04:16:55;19.40;98.80
22202;DHT22;11266;51.522;6.302;2023-07-08T04:17:45;19.40;98.30
22202;DHT22;11266;51.522;6.302;2023-07-08T04:18:32;19.50;98.00
22202;DHT22;11266;51.522;6.302;2023-07-08T04:19:17;19.50;98.20
22202;DHT22;11266;51.522;6.302;2023-07-08T04:20:03;19.50;98.60
22202;DHT22;11266;51.522;6.302;2023-07-08T04:20:49;19.50;98.20
22202;DHT22;11266;51.522;6.302;2023-07-08T04:21:37;19.50;98.40
22202;DHT22;11266;51.522;6.302;2023-07-08T04:22:23;19.50;98.30
22202;DHT22;11266;51.522;6.302;2023-07-08T04:23:09;19.50;98.50
22202;DHT22;11266;51.522;6.302;2023-07-08T04:23:55;19.50;98.70
22202;DHT22;11266;51.522;6.302;2023-07-08T04:24:40;19.50;98.50
22202;DHT22;11266;51.522;6.302;2023-07-08T04:25:26;19.50;98.40
22202;DHT22;11266;51.522;6.302;2023-07-08T04:26:11;19.50;98.30
22202;DHT22;11266;51.522;6.302;2023-07-08T04:26:58;19.40;98.10
22202;DHT22;11266;51.522;6.302;2023-07-08T04:27:43;19.40;98.50
22202;DHT22;11266;51.522;6.302;2023-07-08T04:28:29;19.40;97.90
22202;DHT22;11266;51.522;6.302;2023-07-08T04:29:19;19.40;98.00
22202;DHT22;11266;51.522;6.302;2023-07-08T04:30:07;19.50;98.20
22202;DHT22;11266;51.522;6.302;2023-07-08T04:30:52;19.50;98.70
22202;DHT22;11266;51.522;6.302;2023-07-08T04:31:38;19.40;99.10
22202;DHT22;11266;51.522;6.302;2023-07-08T04:32:23;19.40;98.80
22202;DHT22;11266;51.522;6.302;2023-07-08T04:33:12;19.40;99.70
22202;DHT22;11266;51.522;6.302;2023-07-08T04:33:58;19.40;99.00
22202;DHT22;11266;51.522;6.302;2023-07-08T04:34:43;19.40;99.50
22202;DHT22;11266;51.522;6.302;2023-07-08T04:35:29;19.40;98.70
22202;DHT22;11266;51.522;6.302;2023-07-08T04:36:14;19.40;98.80
22202;DHT22;11266;51.522;6.302;2023-07-08T04:37:00;19.40;98.50
22202;DHT22;11266;51.522;6.302;2023-07-08T04:37:46;19.40;98.90
22202;DHT22;11266;51.522;6.302;2023-07-08T04:38:32;19.40;98.50
22202;DHT22;11266;51.522;6.302;2023-07-08T04:39:21;19.40;99.50
22202;DHT22;11266;51.522;6.302;2023-07-08T04:40:18;19.40;98.70
22202;DHT22;11266;51.522;6.302;2023-07-08T04:41:04;19.40;98.80
22202;DHT22;11266;51.522;6.302;2023-07-08T04:41:50;19.40;99.10
22202;DHT22;11266;51.522;6.302;2023-07-08T04:42:36;19.40;99.50
22202;DHT22;11266;51.522;6.302;2023-07-08T04:43:22;19.40;98.80
22202;DHT22;11266;51.522;6.302;2023-07-08T04:44:08;19.40;99.10
22202;DHT22;11266;51.522;6.302;2023-07-08T04:44:53;19.40;98.70
22202;DHT22;11266;51.522;6.302;2023-07-08T04:45:41;19.40;98.80
22202;DHT22;11266;51.522;6.302;2023-07-08T04:47:24;19.50;99.00
22202;DHT22;11266;51.522;6.302;2023-07-08T04:48:14;19.50;99.00
22202;DHT22;11266;51.522;6.302;2023-07-08T04:49:00;19.40;98.80
22202;DHT22;11266;51.522;6.302;2023-07-08T04:49:46;19.50;99.10
22202;DHT22;11266;51.522;6.302;2023-07-08T04:50:32;19.50;98.90
22202;DHT22;11266;51.522;6.302;2023-07-08T04:51:18;19.50;99.30
22202;DHT22;11266;51.522;6.302;2023-07-08T04:52:05;19.50;98.90
22202;DHT22;11266;51.522;6.302;2023-07-08T04:52:50;19.50;99.90
22202;DHT22;11266;51.522;6.302;2023-07-08T04:53:36;19.50;99.50
22202;DHT22;11266;51.522;6.302;2023-07-08T04:54:21;19.50;99.40
22202;DHT22;11266;51.522;6.302;2023-07-08T04:55:07;19.60;99.30
22202;DHT22;11266;51.522;6.302;2023-07-08T04:55:55;19.60;99.20
22202;DHT22;11266;51.522;6.302;2023-07-08T04:56:45;19.60;99.60
22202;DHT22;11266;51.522;6.302;2023-07-08T04:57:31;19.60;99.70
22202;DHT22;11266;51.522;6.302;2023-07-08T04:58:16;19.60;99.80
22202;DHT22;11266;51.522;6.302;2023-07-08T04:59:02;19.60;99.50
22202;DHT22;11266;51.522;6.302;2023-07-08T04:59:47;19.60;99.70
22202;DHT22;11266;51.522;6.302;2023-07-08T05:00:39;19.70;99.80
22202;DHT22;11266;51.522;6.302;2023-07-08T05:01:25;19.70;99.80
22202;DHT22;11266;51.522;6.302;2023-07-08T05:02:12;19.70;99.80
22202;DHT22;11266;51.522;6.302;2023-07-08T05:02:58;19.80;99.80
22202;DHT22;11266;51.522;6.302;2023-07-08T05:03:43;19.80;99.90
22202;DHT22;11266;51.522;6.302;2023-07-08T05:04:29;19.80;99.90
22202;DHT22;11266;51.522;6.302;2023-07-08T05:05:14;19.70;99.90
22202;DHT22;11266;51.522;6.302;2023-07-08T05:06:00;19.70;99.90
22202;DHT22;11266;51.522;6.302;2023-07-08T05:06:46;19.70;99.90